createdAt,value
2023-03-23T15:58:59.651Z,65.82
2023-03-23T16:01:29.720Z,66.10
2023-03-23T16:04:01.873Z,66.24
2023-03-23T16:06:34.144Z,65.74
2023-03-23T16:09:03.635Z,66.34
2023-03-23T16:11:33.746Z,67.25
2023-03-23T16:14:02.975Z,67.74
2023-03-23T16:16:35.536Z,67.17
2023-03-23T16:19:03.858Z,67.35
2023-03-23T16:21:33.299Z,66.78
2023-03-23T16:24:01.648Z,66.19
2023-03-23T16:26:29.938Z,66.76
2023-03-23T16:29:09.984Z,67.82
2023-03-23T16:31:41.122Z,68.52
2023-03-23T16:34:09.086Z,68.49
2023-03-23T16:36:38.962Z,67.66
2023-03-23T16:39:07.079Z,68.06
2023-03-23T16:41:35.215Z,68.98
2023-03-23T16:44:02.946Z,68.94
2023-03-23T16:46:31.445Z,69.12
2023-03-23T16:48:59.393Z,69.47
2023-03-23T16:51:27.235Z,69.74
2023-03-23T16:53:57.202Z,68.32
2023-03-23T16:56:25.340Z,68.29
2023-03-23T16:58:53.421Z,68.13
2023-03-23T17:01:21.548Z,67.40
2023-03-23T17:03:49.648Z,68.11
2023-03-23T17:06:17.559Z,68.30
2023-03-23T17:08:45.881Z,68.85
2023-03-23T17:11:15.565Z,68.33
2023-03-23T17:13:43.449Z,69.26
2023-03-23T17:16:11.634Z,68.56
2023-03-23T17:18:39.472Z,69.03
2023-03-23T17:21:07.989Z,69.24
2023-03-23T17:23:36.300Z,68.91
2023-03-23T17:26:04.264Z,68.95
2023-03-23T17:28:33.596Z,68.94
2023-03-23T17:31:01.517Z,69.25
2023-03-23T17:33:29.373Z,68.55
2023-03-23T17:35:57.489Z,68.14
2023-03-23T17:38:25.419Z,68.82
2023-03-23T17:40:58.929Z,68.73
2023-03-23T17:43:27.135Z,69.33
2023-03-23T17:45:57.168Z,68.94
2023-03-23T17:48:25.193Z,68.77
2023-03-23T17:50:57.632Z,69.32
2023-03-23T17:53:26.473Z,69.64
2023-03-23T17:55:54.570Z,69.89
2023-03-23T17:58:22.907Z,70.66
2023-03-23T18:00:50.820Z,70.81
2023-03-23T18:03:20.027Z,70.86
2023-03-23T18:05:48.594Z,71.06
2023-03-23T18:08:16.375Z,72.41
2023-03-23T18:10:44.216Z,72.75
2023-03-23T18:13:12.506Z,72.82
2023-03-23T18:15:46.808Z,73.20
2023-03-23T18:18:15.117Z,73.55
2023-03-23T18:20:44.252Z,73.54
2023-03-23T18:23:12.268Z,74.02
2023-03-23T18:25:40.879Z,74.05
2023-03-23T18:28:08.740Z,74.69
2023-03-23T18:30:36.872Z,74.53
2023-03-23T18:33:05.034Z,74.54
2023-03-23T18:35:33.036Z,75.16
2023-03-23T18:38:02.181Z,75.33
2023-03-23T18:40:30.148Z,74.97
2023-03-23T18:43:00.568Z,75.78
2023-03-23T18:45:29.023Z,75.53
2023-03-23T18:47:57.940Z,75.97
2023-03-23T18:50:25.824Z,75.90
2023-03-23T18:52:53.601Z,75.31
2023-03-23T18:55:23.965Z,75.65
2023-03-23T18:57:51.799Z,76.08
2023-03-23T19:00:21.567Z,75.39
2023-03-23T19:02:51.997Z,75.62
2023-03-23T19:05:20.780Z,75.84
2023-03-23T19:07:49.078Z,75.56
2023-03-23T19:10:17.557Z,75.75
2023-03-23T19:12:47.339Z,75.99
2023-03-23T19:15:16.849Z,75.95
2023-03-23T19:17:45.069Z,76.32
2023-03-23T19:20:16.103Z,76.49
2023-03-23T19:22:51.422Z,76.17
2023-03-23T19:25:20.212Z,76.85
2023-03-23T19:28:38.390Z,77.05
2023-03-23T19:30:37.373Z,77.15
2023-03-23T19:33:05.473Z,77.17
2023-03-23T19:35:33.448Z,77.41
2023-03-23T19:38:01.427Z,77.77
2023-03-23T19:43:02.461Z,77.31
2023-03-23T19:45:30.414Z,76.90
2023-03-23T19:47:59.689Z,77.22
2023-03-23T19:50:27.765Z,77.32
2023-03-23T19:52:58.628Z,76.43
2023-03-23T19:55:28.209Z,76.83
2023-03-23T19:57:56.115Z,77.18
2023-03-23T20:00:25.295Z,78.16
2023-03-23T20:02:53.172Z,77.69
2023-03-23T20:05:21.206Z,77.89
2023-03-23T20:07:51.896Z,78.33
2023-03-23T20:10:20.486Z,78.52
2023-03-23T20:12:48.478Z,78.34
2023-03-23T20:15:16.517Z,78.51
2023-03-23T20:17:45.899Z,78.28
2023-03-23T20:20:14.934Z,77.80
2023-03-23T20:22:42.727Z,78.44
2023-03-23T20:25:10.884Z,78.27
2023-03-23T20:27:39.112Z,78.72
2023-03-23T20:30:08.918Z,78.45
2023-03-23T20:32:40.667Z,78.81
2023-03-23T20:35:12.868Z,79.85
2023-03-23T20:37:41.543Z,80.18
2023-03-23T20:40:11.954Z,80.44
2023-03-23T20:42:43.708Z,80.77
2023-03-23T20:45:13.524Z,80.43
2023-03-23T20:47:42.050Z,80.45
2023-03-23T20:50:12.432Z,80.40
2023-03-23T20:52:41.074Z,79.97
2023-03-23T20:55:09.590Z,80.06
2023-03-23T20:57:38.582Z,79.50
2023-03-23T21:00:09.536Z,79.67
2023-03-23T21:02:39.493Z,79.36
2023-03-23T21:05:07.692Z,79.11
2023-03-23T21:07:36.953Z,79.29
2023-03-23T21:10:05.422Z,79.36
2023-03-23T21:12:33.259Z,79.67
2023-03-23T21:15:01.263Z,80.12
2023-03-23T21:17:29.195Z,80.89
2023-03-23T21:19:57.373Z,81.05
2023-03-23T21:22:25.504Z,80.62
2023-03-23T21:24:54.788Z,81.23
2023-03-23T21:27:22.577Z,81.04
2023-03-23T21:29:50.402Z,81.23
2023-03-23T21:32:18.298Z,81.48
2023-03-23T21:34:47.491Z,81.16
2023-03-23T21:37:16.221Z,82.30
2023-03-23T21:39:44.435Z,82.34
2023-03-23T21:42:14.661Z,82.43
2023-03-23T21:44:43.432Z,82.71
2023-03-23T21:47:12.769Z,83.28
2023-03-23T21:49:40.892Z,83.16
2023-03-23T21:52:09.296Z,82.62
2023-03-23T21:54:37.119Z,83.62
2023-03-23T21:57:05.244Z,83.37
2023-03-23T21:59:34.527Z,84.06
2023-03-23T22:02:02.969Z,83.71
2023-03-23T22:04:30.793Z,83.00
2023-03-23T22:06:58.834Z,83.74
2023-03-23T22:09:26.801Z,83.48
2023-03-23T22:11:54.839Z,83.39
2023-03-23T22:14:22.906Z,84.51
2023-03-23T22:16:52.474Z,84.45
2023-03-23T22:19:21.115Z,84.50
2023-03-23T22:21:48.956Z,84.83
2023-03-23T22:24:17.943Z,85.38
2023-03-23T22:26:46.321Z,85.23
2023-03-23T22:29:16.988Z,85.69
2023-03-23T22:31:46.109Z,86.28
2023-03-23T22:34:15.509Z,86.02
2023-03-23T22:36:44.088Z,85.52
2023-03-23T22:39:12.298Z,85.55
2023-03-23T22:41:43.400Z,85.44
2023-03-23T22:44:13.835Z,85.12
2023-03-23T22:46:42.203Z,85.46
2023-03-23T22:49:10.110Z,85.05
2023-03-23T22:51:39.911Z,85.23
2023-03-23T22:54:08.006Z,85.12
2023-03-23T22:56:37.239Z,85.23
2023-03-23T22:59:05.648Z,85.02
2023-03-23T23:01:33.948Z,85.32
2023-03-23T23:04:02.938Z,85.47
2023-03-23T23:06:30.880Z,85.15
2023-03-23T23:09:00.111Z,85.10
2023-03-23T23:11:28.415Z,85.25
2023-03-23T23:13:56.634Z,85.22
2023-03-23T23:16:26.281Z,85.30
2023-03-23T23:18:54.945Z,85.21
2023-03-23T23:21:26.130Z,84.94
2023-03-23T23:23:54.608Z,84.89
2023-03-23T23:26:27.901Z,84.70
2023-03-23T23:28:55.868Z,84.17
2023-03-23T23:31:27.265Z,84.49
2023-03-23T23:33:57.201Z,84.86
2023-03-23T23:36:30.592Z,85.11
2023-03-23T23:38:59.764Z,84.87
2023-03-23T23:41:30.522Z,84.98
2023-03-23T23:43:59.532Z,84.51
2023-03-23T23:46:28.893Z,84.32
2023-03-23T23:48:56.870Z,84.15
2023-03-23T23:51:27.445Z,83.91
2023-03-23T23:53:58.822Z,84.28
2023-03-23T23:56:29.393Z,83.74
2023-03-23T23:58:58.092Z,83.99
